createdAt,value
2023-05-19T00:01:03.510Z,100.00
2023-05-19T00:03:33.981Z,100.00
2023-05-19T00:06:03.896Z,100.00
2023-05-19T00:08:32.817Z,100.00
2023-05-19T00:11:01.419Z,100.00
2023-05-19T00:13:30.702Z,100.00
2023-05-19T00:15:59.215Z,100.00
2023-05-19T00:18:29.880Z,100.00
2023-05-19T00:20:57.991Z,100.00
2023-05-19T00:23:26.162Z,100.00
2023-05-19T00:25:54.188Z,100.00
2023-05-19T00:28:22.172Z,100.00
2023-05-19T00:30:52.159Z,100.00
2023-05-19T00:33:20.244Z,100.00
2023-05-19T00:35:49.626Z,100.00
2023-05-19T00:38:17.651Z,100.00
2023-05-19T00:40:46.383Z,100.00
2023-05-19T00:43:14.446Z,100.00
2023-05-19T00:45:42.501Z,100.00
2023-05-19T00:48:10.560Z,100.00
2023-05-19T00:50:38.691Z,100.00
2023-05-19T00:53:08.515Z,100.00
2023-05-19T00:55:40.566Z,100.00
2023-05-19T00:58:10.964Z,100.00
2023-05-19T01:00:39.808Z,100.00
2023-05-19T01:03:11.615Z,100.00
2023-05-19T01:05:41.746Z,100.00
2023-05-19T01:08:11.400Z,100.00
2023-05-19T01:10:39.450Z,100.00
2023-05-19T01:13:08.239Z,100.00
2023-05-19T01:15:48.145Z,100.00
2023-05-19T01:18:26.106Z,100.00
2023-05-19T01:21:06.312Z,100.00
2023-05-19T01:23:50.485Z,100.00
2023-05-19T01:26:37.229Z,100.00
2023-05-19T01:29:30.519Z,100.00
2023-05-19T01:32:02.211Z,100.00
2023-05-19T01:34:32.541Z,100.00
2023-05-19T01:37:02.735Z,100.00
2023-05-19T01:39:31.065Z,100.00
2023-05-19T01:41:59.945Z,100.00
2023-05-19T01:44:28.083Z,100.00
2023-05-19T01:46:56.702Z,100.00
2023-05-19T01:49:26.110Z,100.00
2023-05-19T01:51:54.760Z,100.00
2023-05-19T01:54:22.858Z,100.00
2023-05-19T01:56:57.832Z,100.00
2023-05-19T01:59:38.617Z,100.00
2023-05-19T02:02:15.544Z,100.00
2023-05-19T02:04:52.220Z,100.00
2023-05-19T02:07:27.738Z,100.00
2023-05-19T02:10:04.135Z,100.00
2023-05-19T02:12:35.598Z,100.00
2023-05-19T02:15:07.193Z,100.00
2023-05-19T02:17:40.341Z,100.00
2023-05-19T02:20:11.974Z,100.00
2023-05-19T02:22:40.212Z,100.00
2023-05-19T02:25:09.111Z,100.00
2023-05-19T02:27:38.428Z,100.00
2023-05-19T02:30:08.303Z,100.00
2023-05-19T02:32:36.845Z,100.00
2023-05-19T02:35:05.409Z,100.00
2023-05-19T02:37:35.505Z,100.00
2023-05-19T02:40:04.362Z,100.00
2023-05-19T02:42:32.754Z,100.00
2023-05-19T02:45:02.150Z,100.00
2023-05-19T02:47:30.224Z,100.00
2023-05-19T02:49:59.284Z,100.00
2023-05-19T02:52:27.260Z,100.00
2023-05-19T02:54:56.665Z,100.00
2023-05-19T02:57:24.633Z,100.00
2023-05-19T02:59:52.565Z,100.00
2023-05-19T03:02:20.589Z,100.00
2023-05-19T03:04:48.705Z,100.00
2023-05-19T03:07:16.675Z,100.00
2023-05-19T03:09:44.681Z,100.00
2023-05-19T03:12:14.000Z,100.00
2023-05-19T03:14:42.475Z,100.00
2023-05-19T03:17:10.855Z,100.00
2023-05-19T03:19:39.206Z,100.00
2023-05-19T03:22:07.160Z,100.00
2023-05-19T03:24:36.382Z,100.00
2023-05-19T03:27:05.469Z,100.00
2023-05-19T03:29:34.891Z,100.00
2023-05-19T03:32:03.007Z,100.00
2023-05-19T03:34:32.756Z,100.00
2023-05-19T03:37:00.763Z,100.00
2023-05-19T03:39:28.769Z,100.00
2023-05-19T03:41:57.443Z,100.00
2023-05-19T03:44:25.384Z,100.00
2023-05-19T03:46:54.765Z,100.00
2023-05-19T03:49:22.791Z,100.00
2023-05-19T03:51:50.804Z,100.00
2023-05-19T03:54:19.761Z,100.00
2023-05-19T03:56:47.932Z,100.00
2023-05-19T03:59:16.284Z,100.00
2023-05-19T04:01:44.243Z,100.00
2023-05-19T04:04:13.734Z,100.00
2023-05-19T04:06:41.870Z,100.00
2023-05-19T04:09:14.542Z,100.00
2023-05-19T04:11:42.743Z,100.00
2023-05-19T04:14:10.902Z,100.00
2023-05-19T04:16:39.138Z,100.00
2023-05-19T04:19:07.244Z,100.00
2023-05-19T04:21:36.667Z,100.00
2023-05-19T04:24:06.391Z,100.00
2023-05-19T04:26:34.867Z,100.00
2023-05-19T04:29:04.730Z,100.00
2023-05-19T04:31:34.586Z,100.00
2023-05-19T04:34:02.978Z,100.00
2023-05-19T04:36:31.336Z,100.00
2023-05-19T04:39:02.843Z,100.00
2023-05-19T04:41:30.798Z,100.00
2023-05-19T04:43:58.811Z,100.00
2023-05-19T04:46:30.149Z,100.00
2023-05-19T04:48:58.315Z,100.00
2023-05-19T04:51:29.814Z,100.00
2023-05-19T04:54:00.441Z,100.00
2023-05-19T04:56:29.151Z,100.00
2023-05-19T04:58:57.181Z,100.00
2023-05-19T05:01:26.369Z,100.00
2023-05-19T05:03:56.261Z,100.00
2023-05-19T05:06:24.299Z,100.00
2023-05-19T05:08:52.545Z,100.00
2023-05-19T05:11:22.623Z,100.00
2023-05-19T05:13:51.342Z,100.00
2023-05-19T05:16:19.948Z,100.00
2023-05-19T05:18:48.545Z,100.00
2023-05-19T05:21:17.306Z,100.00
2023-05-19T05:23:45.958Z,100.00
2023-05-19T05:26:19.622Z,100.00
2023-05-19T05:28:49.224Z,100.00
2023-05-19T05:31:17.292Z,100.00
2023-05-19T10:17:40.703Z,46.89
2023-05-19T10:22:45.718Z,46.07
2023-05-19T10:52:42.556Z,44.39
2023-05-19T10:55:17.839Z,44.69
2023-05-19T11:28:32.106Z,43.80
2023-05-19T11:31:01.194Z,45.03
2023-05-19T11:33:29.332Z,45.00
2023-05-19T11:35:59.247Z,47.15
2023-05-19T11:38:28.443Z,47.36
2023-05-19T11:40:57.303Z,47.89
2023-05-19T11:43:26.144Z,49.58
2023-05-19T11:45:56.093Z,54.55
2023-05-19T11:48:25.854Z,55.47
2023-05-19T11:50:54.317Z,58.53
2023-05-19T11:53:24.546Z,58.69
2023-05-19T11:55:52.760Z,62.79
2023-05-19T11:58:28.411Z,59.90
2023-05-19T12:00:56.666Z,68.52
2023-05-19T12:03:28.213Z,69.17
2023-05-19T12:05:56.679Z,68.63
2023-05-19T12:08:27.269Z,69.67
2023-05-19T12:10:56.284Z,71.64
2023-05-19T12:13:24.396Z,73.66
2023-05-19T12:15:53.099Z,76.34
2023-05-19T12:18:21.461Z,75.94
2023-05-19T12:20:49.778Z,76.06
2023-05-19T12:23:18.058Z,74.95
2023-05-19T12:25:48.946Z,75.05
2023-05-19T12:28:17.666Z,74.27
2023-05-19T12:30:49.545Z,74.31
2023-05-19T12:33:17.667Z,75.70
2023-05-19T12:35:46.197Z,75.70
2023-05-19T12:38:16.112Z,75.50
2023-05-19T12:40:44.487Z,75.47
2023-05-19T12:43:22.404Z,73.15
2023-05-19T12:45:50.742Z,74.03
2023-05-19T12:48:22.816Z,76.10
2023-05-19T12:50:55.735Z,76.07
2023-05-19T12:53:27.838Z,75.35
2023-05-19T12:55:56.940Z,75.56
2023-05-19T12:58:26.647Z,72.93
2023-05-19T13:01:01.173Z,71.76
2023-05-19T13:03:29.637Z,69.95
2023-05-19T13:05:59.680Z,69.06
2023-05-19T13:08:28.035Z,67.11
2023-05-19T13:10:56.217Z,65.97
2023-05-19T13:13:24.183Z,66.14
2023-05-19T13:15:53.841Z,65.35
2023-05-19T13:18:21.845Z,63.28
2023-05-19T13:20:51.436Z,63.47
2023-05-19T13:23:19.557Z,62.79
2023-05-19T13:25:48.485Z,60.95
2023-05-19T13:28:16.554Z,59.65
2023-05-19T13:30:45.241Z,54.61
2023-05-19T13:33:14.866Z,54.97
2023-05-19T13:35:43.224Z,55.24
2023-05-19T13:38:11.384Z,52.63
2023-05-19T13:40:40.241Z,50.97
2023-05-19T13:43:09.866Z,51.23
2023-05-19T13:45:38.770Z,51.53
2023-05-19T13:48:08.383Z,52.85
2023-05-19T13:50:38.102Z,53.44
2023-05-19T13:53:06.114Z,52.53
2023-05-19T13:55:34.907Z,51.83
2023-05-19T13:58:03.527Z,52.44
2023-05-19T14:00:32.599Z,52.78
2023-05-19T14:03:01.055Z,51.26
2023-05-19T14:05:31.257Z,52.79
2023-05-19T14:08:01.389Z,51.51
2023-05-19T14:10:29.760Z,52.30
2023-05-19T14:15:34.347Z,52.32
2023-05-19T14:18:03.591Z,52.09
2023-05-19T14:20:33.595Z,52.46
2023-05-19T14:23:03.341Z,53.50
2023-05-19T14:25:31.601Z,53.98
2023-05-19T14:28:00.089Z,53.81
2023-05-19T14:30:28.148Z,53.88
2023-05-19T14:32:56.258Z,53.26
2023-05-19T14:35:24.883Z,52.62
2023-05-19T14:37:53.085Z,52.78
2023-05-19T14:40:23.085Z,52.83
2023-05-19T14:42:51.210Z,52.70
2023-05-19T14:45:19.961Z,52.42
2023-05-19T14:47:48.179Z,51.72
2023-05-19T14:50:16.394Z,52.47
2023-05-19T14:52:44.379Z,51.97
2023-05-19T14:55:12.417Z,51.23
2023-05-19T14:57:44.646Z,51.33
2023-05-19T15:00:15.359Z,51.59
2023-05-19T15:02:43.665Z,51.65
2023-05-19T15:05:12.464Z,51.54
2023-05-19T15:07:40.635Z,51.29
2023-05-19T15:10:09.529Z,51.68
2023-05-19T15:12:38.878Z,51.00
2023-05-19T15:15:10.513Z,51.86
2023-05-19T15:17:39.154Z,52.55
2023-05-19T15:20:08.507Z,53.00
2023-05-19T15:22:36.755Z,54.55
2023-05-19T15:25:05.104Z,56.91
2023-05-19T15:27:33.294Z,58.57
2023-05-19T15:30:01.347Z,60.09
2023-05-19T15:32:30.876Z,61.23
2023-05-19T15:34:59.152Z,60.18
2023-05-19T15:37:27.522Z,57.55
2023-05-19T15:39:56.123Z,56.12
2023-05-19T15:42:26.162Z,56.12
2023-05-19T15:44:54.621Z,56.64
2023-05-19T15:47:22.531Z,57.18
2023-05-19T15:49:52.964Z,57.78
2023-05-19T15:52:21.060Z,58.27
2023-05-19T15:54:49.921Z,57.90
2023-05-19T15:57:18.034Z,57.05
2023-05-19T15:59:46.532Z,57.03
2023-05-19T16:02:15.728Z,56.79
2023-05-19T16:04:43.737Z,57.23
2023-05-19T16:07:13.207Z,57.70
2023-05-19T16:09:41.530Z,57.79
2023-05-19T16:12:09.790Z,58.65
2023-05-19T16:14:38.259Z,59.37
2023-05-19T16:17:11.409Z,59.16
2023-05-19T16:19:39.585Z,59.97
2023-05-19T16:22:07.589Z,58.37
2023-05-19T16:24:37.042Z,58.42
2023-05-19T16:27:05.629Z,58.95
2023-05-19T16:29:33.709Z,59.29
2023-05-19T16:32:02.617Z,59.18
2023-05-19T16:34:31.510Z,59.40
2023-05-19T16:37:01.970Z,59.16
2023-05-19T16:39:30.104Z,59.26
2023-05-19T16:41:59.878Z,59.40
2023-05-19T16:44:28.260Z,59.69
2023-05-19T16:46:57.473Z,59.26
2023-05-19T16:49:25.455Z,59.23
2023-05-19T16:51:54.338Z,59.36
2023-05-19T16:54:23.479Z,59.77
2023-05-19T16:56:52.647Z,60.61
2023-05-19T16:59:21.968Z,61.13
2023-05-19T17:01:50.176Z,61.66
2023-05-19T17:04:18.457Z,63.25
2023-05-19T17:06:47.186Z,64.52
2023-05-19T17:09:15.387Z,65.83
2023-05-19T17:11:43.619Z,67.15
2023-05-19T17:14:11.581Z,68.20
2023-05-19T17:16:41.115Z,69.25
2023-05-19T17:19:09.190Z,70.58
2023-05-19T17:21:37.306Z,71.41
2023-05-19T17:24:05.899Z,72.94
2023-05-19T17:26:35.518Z,74.36
2023-05-19T17:29:03.523Z,74.98
2023-05-19T17:31:31.786Z,75.93
2023-05-19T17:34:01.555Z,76.41
2023-05-19T17:36:30.058Z,77.27
2023-05-19T17:38:58.225Z,75.68
2023-05-19T17:41:26.633Z,75.47
2023-05-19T17:43:55.050Z,75.80
2023-05-19T17:46:23.146Z,75.48
2023-05-19T17:48:51.351Z,75.42
2023-05-19T17:51:21.647Z,75.69
2023-05-19T17:53:50.479Z,75.02
2023-05-19T17:56:20.309Z,75.00
2023-05-19T17:58:49.470Z,75.42
2023-05-19T18:01:18.456Z,76.07
2023-05-19T18:03:49.822Z,76.86
2023-05-19T18:06:21.377Z,78.15
2023-05-19T18:08:52.124Z,78.03
2023-05-19T18:11:21.735Z,78.10
2023-05-19T18:13:49.875Z,78.29
2023-05-19T18:16:18.012Z,79.06
2023-05-19T18:18:50.399Z,79.93
2023-05-19T18:21:18.981Z,80.21
2023-05-19T18:23:48.084Z,80.50
2023-05-19T18:26:17.972Z,80.66
2023-05-19T18:28:46.176Z,81.58
2023-05-19T18:31:19.534Z,82.25
2023-05-19T18:33:48.346Z,83.16
2023-05-19T18:36:16.738Z,84.19
2023-05-19T18:38:47.011Z,84.36
2023-05-19T18:41:16.240Z,84.04
2023-05-19T18:43:47.664Z,84.58
2023-05-19T18:46:16.289Z,84.75
2023-05-19T18:48:46.517Z,84.78
2023-05-19T18:51:16.092Z,85.25
2023-05-19T18:53:44.336Z,86.10
2023-05-19T18:56:12.703Z,84.60
2023-05-19T18:58:40.703Z,83.56
2023-05-19T19:01:10.078Z,82.92
2023-05-19T19:03:38.101Z,82.71
2023-05-19T19:06:06.052Z,83.91
2023-05-19T19:08:34.267Z,85.52
2023-05-19T19:11:02.433Z,87.36
2023-05-19T19:13:30.513Z,88.54
2023-05-19T19:15:58.550Z,90.89
2023-05-19T19:18:30.344Z,94.36
2023-05-19T19:20:59.727Z,94.58
2023-05-19T19:23:27.719Z,95.33
2023-05-19T19:25:57.547Z,95.95
2023-05-19T19:28:26.202Z,95.89
2023-05-19T19:30:54.650Z,96.92
2023-05-19T19:33:22.783Z,98.64
2023-05-19T19:35:54.782Z,100.00
2023-05-19T19:38:25.029Z,100.00
2023-05-19T19:40:53.291Z,100.00
2023-05-19T19:43:21.303Z,100.00
2023-05-19T19:45:50.219Z,100.00
2023-05-19T19:48:18.261Z,100.00
2023-05-19T19:50:46.361Z,100.00
2023-05-19T19:53:15.962Z,100.00
2023-05-19T19:55:44.013Z,100.00
2023-05-19T19:58:11.988Z,100.00
2023-05-19T20:00:39.972Z,100.00
2023-05-19T20:03:10.745Z,100.00
2023-05-19T20:05:39.570Z,100.00
2023-05-19T20:08:07.865Z,100.00
2023-05-19T20:10:37.261Z,100.00
2023-05-19T20:13:05.208Z,100.00
2023-05-19T20:15:33.397Z,100.00
2023-05-19T20:18:01.477Z,100.00
2023-05-19T20:20:29.662Z,100.00
2023-05-19T20:22:57.620Z,100.00
2023-05-19T20:25:26.644Z,100.00
2023-05-19T20:27:56.451Z,100.00
2023-05-19T20:30:24.518Z,100.00
2023-05-19T20:32:52.554Z,100.00
2023-05-19T20:35:20.819Z,100.00
2023-05-19T20:37:49.494Z,100.00
2023-05-19T20:40:18.711Z,100.00
2023-05-19T20:42:46.758Z,100.00
2023-05-19T20:45:16.712Z,100.00
2023-05-19T20:47:45.045Z,100.00
2023-05-19T20:50:12.974Z,100.00
2023-05-19T20:52:41.281Z,100.00
2023-05-19T20:55:09.700Z,100.00
2023-05-19T20:57:37.624Z,100.00
2023-05-19T21:00:06.267Z,100.00
2023-05-19T21:02:35.907Z,100.00
2023-05-19T21:05:04.776Z,100.00
2023-05-19T21:07:34.044Z,100.00
2023-05-19T21:10:02.088Z,100.00
2023-05-19T21:12:34.070Z,100.00
2023-05-19T21:15:03.791Z,100.00
2023-05-19T21:17:31.915Z,100.00
2023-05-19T21:20:02.025Z,100.00
2023-05-19T21:22:30.040Z,100.00
2023-05-19T21:24:58.422Z,100.00
2023-05-19T21:27:27.001Z,100.00
2023-05-19T21:29:55.502Z,100.00
2023-05-19T21:32:23.536Z,100.00
2023-05-19T21:34:51.502Z,100.00
2023-05-19T21:37:21.742Z,100.00
2023-05-19T21:39:49.936Z,100.00
2023-05-19T21:42:17.964Z,100.00
2023-05-19T21:44:46.187Z,100.00
2023-05-19T21:47:14.161Z,100.00
2023-05-19T21:49:42.305Z,100.00
2023-05-19T21:52:11.016Z,100.00
2023-05-19T21:54:40.339Z,100.00
2023-05-19T21:57:08.391Z,100.00
2023-05-19T21:59:36.706Z,100.00
2023-05-19T22:02:04.817Z,100.00
2023-05-19T22:04:32.861Z,100.00
2023-05-19T22:07:01.139Z,100.00
2023-05-19T22:09:29.261Z,100.00
2023-05-19T22:11:58.954Z,100.00
2023-05-19T22:14:28.232Z,100.00
2023-05-19T22:16:56.500Z,100.00
2023-05-19T22:19:24.654Z,100.00
2023-05-19T22:22:01.732Z,100.00
2023-05-19T22:24:34.238Z,100.00
2023-05-19T22:27:04.482Z,100.00
2023-05-19T22:29:32.988Z,100.00
2023-05-19T22:32:01.567Z,100.00
2023-05-19T22:34:29.697Z,100.00
2023-05-19T22:36:58.059Z,100.00
2023-05-19T22:39:26.223Z,100.00
2023-05-19T22:41:54.286Z,100.00
2023-05-19T22:44:23.548Z,100.00
2023-05-19T22:46:53.443Z,100.00
2023-05-19T22:49:22.955Z,100.00
2023-05-19T22:51:51.279Z,100.00
2023-05-19T22:54:19.488Z,100.00
2023-05-19T22:56:49.044Z,100.00
2023-05-19T22:59:18.008Z,100.00
2023-05-19T23:01:47.570Z,100.00
2023-05-19T23:04:15.745Z,100.00
2023-05-19T23:06:43.793Z,100.00
2023-05-19T23:09:11.919Z,100.00
2023-05-19T23:11:39.945Z,100.00
2023-05-19T23:14:07.973Z,100.00
2023-05-19T23:16:35.980Z,100.00
2023-05-19T23:19:05.399Z,100.00
2023-05-19T23:21:33.709Z,100.00
2023-05-19T23:24:01.592Z,100.00
2023-05-19T23:26:29.685Z,100.00
2023-05-19T23:28:57.615Z,100.00
2023-05-19T23:31:25.780Z,100.00
2023-05-19T23:33:53.748Z,100.00
2023-05-19T23:36:23.214Z,100.00
2023-05-19T23:38:53.518Z,100.00
2023-05-19T23:41:21.695Z,100.00
2023-05-19T23:43:49.706Z,100.00
2023-05-19T23:46:17.768Z,100.00
2023-05-19T23:48:45.791Z,100.00
2023-05-19T23:51:13.728Z,100.00
2023-05-19T23:53:43.032Z,100.00
2023-05-19T23:56:11.951Z,100.00
2023-05-19T23:58:39.882Z,100.00
